Time;durP1;ratioP1;P1;durP2;ratioP2;P2;SDS_P1;SDS_P2;PMS_P1;PMS_P2;Temp;Humidity;BMP_temperature;BMP_pressure;BME280_temperature;BME280_humidity;BME280_pressure;Samples;Min_cycle;Max_cycle;Signal;HPM_P1;HPM_P2
2021/05/22 00:00:22;;;;;;;1.45;0.62;;;12.50;99.90;;;;;;4436589;32;20065;-82
2021/05/22 00:02:48;;;;;;;0.73;0.73;;;12.60;99.90;;;;;;4435978;32;20073;-79
2021/05/22 00:05:15;;;;;;;0.40;0.40;;;12.70;99.90;;;;;;4440048;32;20120;-78
2021/05/22 00:07:59;;;;;;;0.52;0.52;;;12.70;99.90;;;;;;4453049;32;20513;-79
2021/05/22 00:10:24;;;;;;;0.40;0.40;;;12.50;99.90;;;;;;4452128;32;20089;-78
2021/05/22 00:12:50;;;;;;;0.40;0.40;;;12.30;99.90;;;;;;4441973;32;20077;-79
2021/05/22 00:15:17;;;;;;;2.62;0.98;;;12.20;99.90;;;;;;4437210;32;20532;-78
2021/05/22 00:17:43;;;;;;;0.47;0.47;;;12.10;99.90;;;;;;4435646;32;20513;-78
2021/05/22 00:20:10;;;;;;;0.47;0.47;;;12.20;99.90;;;;;;4436093;32;20111;-78
2021/05/22 00:22:37;;;;;;;0.77;0.77;;;12.20;99.90;;;;;;4436279;32;20085;-78
2021/05/22 00:25:04;;;;;;;0.40;0.40;;;12.10;99.90;;;;;;4436195;32;20083;-78
2021/05/22 00:27:30;;;;;;;0.40;0.40;;;12.00;99.90;;;;;;4445502;32;20127;-79
2021/05/22 00:29:55;;;;;;;0.47;0.47;;;12.10;99.90;;;;;;4451352;32;20072;-78
2021/05/22 00:32:21;;;;;;;0.65;0.65;;;12.00;99.90;;;;;;4451615;32;20069;-78
2021/05/22 00:34:47;;;;;;;0.50;0.50;;;11.80;99.90;;;;;;4450391;32;20085;-78
2021/05/22 00:37:13;;;;;;;0.30;0.30;;;11.80;99.90;;;;;;4435991;32;20123;-78
2021/05/22 00:39:38;;;;;;;0.40;0.40;;;11.80;99.90;;;;;;4434814;32;20081;-78
2021/05/22 00:42:04;;;;;;;0.40;0.40;;;11.60;99.90;;;;;;4434766;32;20069;-78
2021/05/22 00:44:32;;;;;;;0.40;0.40;;;11.70;99.90;;;;;;4434242;32;20085;-78
2021/05/22 00:47:00;;;;;;;2.37;0.50;;;11.60;99.90;;;;;;4448964;32;20093;-78
2021/05/22 00:49:26;;;;;;;0.40;0.40;;;11.60;99.90;;;;;;4449994;32;20510;-78
2021/05/22 00:51:52;;;;;;;0.65;0.65;;;11.50;99.90;;;;;;4449575;32;20082;-78
2021/05/22 00:54:19;;;;;;;0.43;0.43;;;11.60;99.90;;;;;;4450417;32;20454;-80
2021/05/22 00:56:46;;;;;;;0.50;0.50;;;11.50;99.90;;;;;;4437594;32;20069;-78
2021/05/22 00:59:14;;;;;;;4.22;1.08;;;11.50;99.90;;;;;;4434170;32;20085;-79
2021/05/22 01:01:41;;;;;;;0.30;0.30;;;11.50;99.90;;;;;;4434923;32;20124;-79
2021/05/22 01:04:07;;;;;;;0.30;0.30;;;11.60;99.90;;;;;;4435013;32;20126;-78
2021/05/22 01:06:34;;;;;;;0.40;0.40;;;11.60;99.90;;;;;;4446808;32;20081;-83
2021/05/22 01:09:06;;;;;;;0.40;0.40;;;11.70;99.90;;;;;;4450428;32;20124;-78
2021/05/22 01:11:39;;;;;;;0.22;0.22;;;11.70;99.90;;;;;;4448471;32;20457;-79
2021/05/22 01:14:13;;;;;;;6.80;0.85;;;11.90;99.90;;;;;;4434682;32;20107;-78
2021/05/22 01:16:41;;;;;;;0.77;0.77;;;11.80;99.90;;;;;;4435534;32;20078;-79
2021/05/22 01:19:07;;;;;;;0.40;0.40;;;11.90;99.90;;;;;;4434060;32;20073;-78
2021/05/22 01:21:38;;;;;;;6.65;0.70;;;12.00;99.90;;;;;;4434628;32;20415;-79
2021/05/22 01:24:07;;;;;;;1.10;0.50;;;12.10;99.90;;;;;;4434397;32;20070;-78
2021/05/22 01:26:33;;;;;;;2.45;0.75;;;12.00;99.90;;;;;;4438824;32;20573;-78
2021/05/22 01:29:00;;;;;;;0.62;0.60;;;12.10;99.90;;;;;;4449771;32;20074;-79
2021/05/22 01:31:29;;;;;;;0.28;0.28;;;12.20;99.90;;;;;;4448849;32;20127;-79
2021/05/22 01:33:54;;;;;;;0.40;0.40;;;12.20;99.90;;;;;;4449084;32;20065;-78
2021/05/22 01:36:21;;;;;;;0.40;0.40;;;12.20;99.90;;;;;;4447537;32;20119;-78
2021/05/22 01:38:46;;;;;;;0.60;0.60;;;12.20;99.90;;;;;;4450448;32;20078;-78
2021/05/22 01:41:13;;;;;;;0.30;0.30;;;12.10;99.90;;;;;;4449390;32;20080;-79
2021/05/22 01:43:42;;;;;;;0.32;0.32;;;12.00;99.90;;;;;;4448222;32;20125;-78
2021/05/22 01:46:08;;;;;;;0.47;0.47;;;12.10;99.90;;;;;;4442208;32;20165;-77
2021/05/22 01:48:35;;;;;;;0.50;0.50;;;12.10;99.90;;;;;;4434172;32;20404;-80
2021/05/22 01:51:19;;;;;;;0.70;0.40;;;12.10;99.90;;;;;;4434839;32;20428;-78
2021/05/22 01:53:45;;;;;;;0.30;0.30;;;12.10;99.90;;;;;;4433758;32;20058;-79
2021/05/22 01:56:12;;;;;;;2.80;0.52;;;12.00;99.90;;;;;;4434440;32;20089;-78
2021/05/22 01:58:38;;;;;;;0.50;0.50;;;12.00;99.90;;;;;;4437142;32;20114;-79
2021/05/22 02:01:04;;;;;;;13.95;1.27;;;12.10;99.90;;;;;;4449149;32;20647;-78
2021/05/22 02:03:36;;;;;;;0.20;0.20;;;12.20;99.90;;;;;;4450899;32;20061;-78
2021/05/22 02:06:05;;;;;;;0.40;0.40;;;12.10;99.90;;;;;;4447965;32;20090;-78
2021/05/22 02:08:36;;;;;;;0.30;0.30;;;12.20;99.90;;;;;;4449552;32;20535;-79
2021/05/22 02:11:02;;;;;;;;;;;12.10;99.90;;;;;;4449705;32;20093;-79
2021/05/22 02:13:27;;;;;;;0.30;0.30;;;12.00;99.90;;;;;;4449400;32;20062;-79
2021/05/22 02:16:01;;;;;;;0.55;0.55;;;12.00;99.90;;;;;;4443711;32;20057;-79
2021/05/22 02:18:28;;;;;;;0.32;0.32;;;12.00;99.90;;;;;;4435902;32;20077;-78
2021/05/22 02:20:56;;;;;;;0.85;0.85;;;12.10;99.90;;;;;;4434433;32;20073;-78
2021/05/22 02:23:23;;;;;;;8.68;0.70;;;12.20;99.90;;;;;;4434649;32;20121;-78
2021/05/22 02:25:55;;;;;;;0.20;0.20;;;12.20;99.90;;;;;;4437778;32;20086;-78
2021/05/22 02:28:25;;;;;;;0.95;0.90;;;12.10;99.90;;;;;;4433616;32;20463;-81
2021/05/22 02:30:51;;;;;;;0.45;0.45;;;12.10;99.90;;;;;;4433662;32;20134;-78
2021/05/22 02:33:18;;;;;;;0.57;0.57;;;11.90;99.90;;;;;;4434437;32;20065;-78
2021/05/22 02:35:47;;;;;;;0.40;0.40;;;11.90;99.90;;;;;;4437131;32;20556;-78
2021/05/22 02:38:21;;;;;;;0.40;0.40;;;11.70;99.90;;;;;;4448738;32;20073;-78
2021/05/22 02:40:49;;;;;;;0.65;0.60;;;11.80;99.90;;;;;;4449616;32;20466;-78
2021/05/22 02:43:15;;;;;;;1.77;0.25;;;11.80;99.90;;;;;;4448907;32;20065;-78
2021/05/22 02:45:44;;;;;;;1.37;0.62;;;11.80;99.90;;;;;;4448438;32;20069;-77
2021/05/22 02:48:17;;;;;;;0.45;0.45;;;11.90;99.90;;;;;;4448169;32;20196;-78
2021/05/22 02:50:45;;;;;;;0.40;0.40;;;11.80;99.90;;;;;;4448840;32;20069;-78
2021/05/22 02:53:12;;;;;;;0.30;0.30;;;11.80;99.90;;;;;;4449464;32;20065;-79
2021/05/22 02:55:38;;;;;;;0.37;0.37;;;11.90;99.90;;;;;;4448473;32;20121;-78
2021/05/22 02:58:05;;;;;;;0.40;0.40;;;11.70;99.90;;;;;;4448309;32;20061;-79
2021/05/22 03:00:33;;;;;;;0.57;0.50;;;11.70;99.90;;;;;;4449573;32;20082;-80
2021/05/22 03:02:59;;;;;;;0.30;0.30;;;11.80;99.90;;;;;;4436709;32;20074;-78
2021/05/22 03:05:25;;;;;;;1.67;1.27;;;11.90;99.90;;;;;;4441541;32;20080;-83
2021/05/22 03:07:54;;;;;;;0.93;0.80;;;11.80;99.90;;;;;;4449987;32;20112;-79
2021/05/22 03:10:39;;;;;;;2.37;0.50;;;11.80;99.90;;;;;;4452480;32;20082;-79
2021/05/22 03:13:05;;;;;;;0.30;0.30;;;11.80;99.90;;;;;;4439494;32;20069;-79
2021/05/22 03:15:32;;;;;;;0.55;0.50;;;11.80;99.90;;;;;;4443068;32;20077;-80
2021/05/22 03:17:57;;;;;;;1.05;0.70;;;11.70;99.90;;;;;;4450323;32;20065;-78
2021/05/22 03:20:23;;;;;;;0.40;0.40;;;11.60;99.90;;;;;;4450679;32;20077;-78
2021/05/22 03:22:49;;;;;;;0.35;0.35;;;11.60;99.90;;;;;;4450874;32;20065;-78
2021/05/22 03:25:14;;;;;;;7.10;0.62;;;11.70;99.90;;;;;;4446956;32;20458;-78
2021/05/22 03:27:40;;;;;;;0.40;0.40;;;11.80;99.90;;;;;;4446320;32;20061;-78
2021/05/22 03:30:08;;;;;;;0.32;0.32;;;11.70;99.90;;;;;;4451520;32;20069;-78
2021/05/22 03:32:35;;;;;;;0.73;0.60;;;11.70;99.90;;;;;;4451361;32;20061;-78
2021/05/22 03:35:27;;;;;;;9.45;1.50;;;11.70;99.90;;;;;;4447425;32;20082;-78
2021/05/22 03:38:42;;;;;;;0.40;0.40;;;11.80;99.90;;;;;;4431479;32;20507;-80
2021/05/22 03:40:59;;;;;;;1.02;0.80;;;11.90;99.90;;;;;;4432564;32;20129;-78
2021/05/22 03:43:25;;;;;;;0.82;0.43;;;11.90;99.90;;;;;;4433430;32;20069;-77
2021/05/22 03:45:51;;;;;;;0.37;0.37;;;11.90;99.90;;;;;;4440062;32;20065;-78
2021/05/22 03:48:16;;;;;;;0.30;0.30;;;12.00;99.90;;;;;;4449671;32;20081;-79
2021/05/22 03:50:42;;;;;;;0.47;0.47;;;12.00;99.90;;;;;;4449433;32;20069;-80
2021/05/22 03:53:08;;;;;;;0.90;0.50;;;12.00;99.90;;;;;;4455112;32;20530;-79
2021/05/22 03:55:34;;;;;;;0.45;0.45;;;11.90;99.90;;;;;;4453985;32;20074;-79
2021/05/22 03:58:00;;;;;;;0.35;0.30;;;11.90;99.90;;;;;;4450272;32;20089;-79
2021/05/22 04:00:26;;;;;;;0.30;0.30;;;12.00;99.90;;;;;;4450779;32;20074;-77
2021/05/22 04:02:54;;;;;;;0.62;0.62;;;12.00;99.90;;;;;;4451785;32;20072;-78
2021/05/22 04:05:26;;;;;;;4.65;0.62;;;12.00;99.90;;;;;;4452359;32;20100;-78
2021/05/22 04:07:52;;;;;;;0.55;0.50;;;12.10;99.90;;;;;;4451390;32;20076;-78
2021/05/22 04:10:18;;;;;;;0.60;0.60;;;12.10;99.90;;;;;;4454253;32;20119;-79
2021/05/22 04:12:44;;;;;;;0.30;0.30;;;12.00;99.90;;;;;;4444263;32;20061;-80
2021/05/22 04:15:15;;;;;;;0.37;0.37;;;12.00;99.90;;;;;;4438660;32;20085;-79
2021/05/22 04:17:47;;;;;;;0.75;0.75;;;11.80;99.90;;;;;;4437536;32;20085;-79
2021/05/22 04:20:13;;;;;;;0.30;0.30;;;11.80;99.90;;;;;;4437575;32;20089;-79
2021/05/22 04:22:39;;;;;;;0.55;0.55;;;11.80;99.90;;;;;;4437992;32;20073;-79
2021/05/22 04:25:07;;;;;;;0.37;0.37;;;11.90;99.90;;;;;;4439777;32;20069;-79
2021/05/22 04:27:32;;;;;;;7.78;0.77;;;12.00;99.90;;;;;;4441320;32;20082;-77
2021/05/22 04:29:58;;;;;;;0.35;0.35;;;12.10;99.90;;;;;;4436467;32;20082;-80
2021/05/22 04:32:23;;;;;;;1.65;0.60;;;12.20;99.90;;;;;;4436908;32;20061;-79
2021/05/22 04:34:50;;;;;;;0.88;0.60;;;12.30;99.90;;;;;;4439418;32;20116;-79
2021/05/22 04:37:15;;;;;;;0.40;0.40;;;12.30;99.90;;;;;;4451772;32;20081;-78
2021/05/22 04:39:43;;;;;;;0.30;0.30;;;12.20;99.90;;;;;;4451294;32;20086;-79
2021/05/22 04:42:08;;;;;;;0.25;0.25;;;12.30;99.90;;;;;;4450865;32;20085;-79
2021/05/22 04:44:34;;;;;;;0.75;0.75;;;12.40;99.90;;;;;;4435903;32;20128;-79
2021/05/22 04:47:01;;;;;;;0.65;0.60;;;12.50;99.90;;;;;;4437235;32;20065;-81
2021/05/22 04:49:27;;;;;;;0.60;0.60;;;12.60;99.90;;;;;;4435581;32;20105;-79
2021/05/22 04:51:55;;;;;;;0.30;0.30;;;12.50;99.90;;;;;;4435140;32;20086;-78
2021/05/22 04:54:21;;;;;;;0.30;0.30;;;12.60;99.90;;;;;;4435526;32;20125;-79
2021/05/22 04:56:46;;;;;;;0.40;0.40;;;12.60;99.90;;;;;;4434672;32;20061;-78
2021/05/22 04:59:12;;;;;;;0.30;0.30;;;12.60;99.90;;;;;;4435353;32;20120;-79
2021/05/22 05:01:40;;;;;;;0.32;0.32;;;12.60;99.90;;;;;;4435401;32;20112;-80
2021/05/22 05:04:09;;;;;;;0.20;0.20;;;12.70;99.90;;;;;;4435404;32;20073;-79
2021/05/22 05:06:35;;;;;;;0.40;0.40;;;12.80;99.90;;;;;;4435493;32;20076;-78
2021/05/22 05:09:00;;;;;;;1.55;0.95;;;12.80;99.90;;;;;;4435823;32;20073;-78
2021/05/22 05:11:26;;;;;;;0.30;0.30;;;12.90;99.90;;;;;;4435876;32;20061;-79
2021/05/22 05:13:52;;;;;;;0.30;0.30;;;12.90;99.90;;;;;;4436125;32;20122;-79
2021/05/22 05:16:17;;;;;;;0.30;0.30;;;13.00;99.90;;;;;;4435328;32;20068;-78
2021/05/22 05:18:45;;;;;;;0.30;0.30;;;13.00;99.90;;;;;;4434321;32;20069;-79
2021/05/22 05:21:11;;;;;;;0.70;0.43;;;13.10;99.90;;;;;;4435482;32;20116;-81
2021/05/22 05:23:37;;;;;;;0.28;0.28;;;13.20;99.90;;;;;;4436548;32;20076;-78
2021/05/22 05:26:03;;;;;;;0.30;0.30;;;13.20;99.90;;;;;;4435730;32;20428;-78
2021/05/22 05:28:31;;;;;;;1.75;0.95;;;13.30;99.90;;;;;;4450412;32;20073;-78
2021/05/22 05:30:57;;;;;;;13.48;1.95;;;13.30;99.90;;;;;;4435928;32;20064;-81
2021/05/22 05:33:23;;;;;;;0.30;0.30;;;13.30;99.90;;;;;;4435207;32;20116;-79
2021/05/22 05:35:49;;;;;;;0.30;0.30;;;13.30;99.90;;;;;;4436013;32;20069;-79
2021/05/22 05:38:16;;;;;;;1.00;0.90;;;13.30;99.90;;;;;;4434127;32;20077;-77
2021/05/22 05:40:42;;;;;;;11.98;1.40;;;13.20;99.90;;;;;;4432278;32;20134;-80
2021/05/22 05:43:11;;;;;;;0.57;0.57;;;13.10;99.90;;;;;;4435020;32;20061;-78
2021/05/22 05:45:38;;;;;;;0.32;0.30;;;13.00;99.90;;;;;;4433725;32;20069;-78
2021/05/22 05:48:04;;;;;;;0.73;0.73;;;12.80;99.90;;;;;;4434743;32;20198;-78
2021/05/22 05:50:31;;;;;;;0.40;0.40;;;12.70;99.90;;;;;;4435114;32;20065;-81
2021/05/22 05:52:56;;;;;;;1.60;0.88;;;12.60;99.90;;;;;;4434717;32;20094;-79
2021/05/22 05:55:22;;;;;;;0.30;0.30;;;12.60;99.90;;;;;;4435995;32;20155;-79
2021/05/22 05:57:47;;;;;;;0.82;0.82;;;12.60;99.90;;;;;;4435449;32;20126;-79
2021/05/22 06:00:22;;;;;;;0.37;0.37;;;12.60;99.90;;;;;;4435813;32;20065;-78
2021/05/22 06:02:48;;;;;;;0.62;0.62;;;12.60;99.90;;;;;;4437217;32;20143;-79
2021/05/22 06:05:14;;;;;;;5.53;0.40;;;12.60;99.90;;;;;;4450854;32;20069;-78
2021/05/22 06:07:40;;;;;;;0.30;0.30;;;12.70;99.90;;;;;;4451380;32;20501;-79
2021/05/22 06:10:07;;;;;;;0.43;0.43;;;12.70;99.90;;;;;;4450968;32;20120;-79
2021/05/22 06:12:34;;;;;;;0.57;0.57;;;12.80;99.90;;;;;;4451198;32;20424;-79
2021/05/22 06:15:10;;;;;;;0.50;0.50;;;12.80;99.90;;;;;;4451423;32;20099;-79
2021/05/22 06:17:36;;;;;;;0.30;0.30;;;12.90;99.90;;;;;;4451438;32;20069;-78
2021/05/22 06:20:02;;;;;;;0.30;0.30;;;12.90;99.90;;;;;;4451286;32;20402;-78
2021/05/22 06:22:28;;;;;;;0.45;0.45;;;13.00;99.90;;;;;;4449130;32;20068;-78
2021/05/22 06:24:54;;;;;;;0.30;0.30;;;13.00;99.90;;;;;;4449664;32;20069;-79
2021/05/22 06:27:19;;;;;;;0.30;0.30;;;13.00;99.90;;;;;;4440917;32;20073;-79
2021/05/22 06:29:44;;;;;;;0.37;0.37;;;13.10;99.90;;;;;;4433177;32;20074;-80
2021/05/22 06:32:10;;;;;;;0.73;0.73;;;13.20;99.90;;;;;;4433317;32;20068;-80
2021/05/22 06:34:36;;;;;;;0.30;0.30;;;13.20;99.90;;;;;;4432037;32;20104;-78
2021/05/22 06:37:04;;;;;;;0.30;0.30;;;13.30;99.90;;;;;;4433068;32;20123;-78
2021/05/22 06:39:30;;;;;;;0.50;0.50;;;13.40;99.90;;;;;;4432015;32;20057;-78
2021/05/22 06:41:56;;;;;;;0.60;0.60;;;13.60;99.90;;;;;;4431552;32;20077;-78
2021/05/22 06:44:25;;;;;;;0.30;0.30;;;13.70;99.90;;;;;;4433091;32;20166;-78
2021/05/22 06:46:51;;;;;;;1.37;0.40;;;13.70;99.90;;;;;;4447375;32;20085;-77
2021/05/22 06:49:18;;;;;;;0.35;0.35;;;13.80;99.90;;;;;;4447756;32;20065;-77
2021/05/22 06:51:44;;;;;;;0.40;0.40;;;13.90;99.90;;;;;;4447282;32;20082;-75
2021/05/22 06:54:10;;;;;;;1.12;0.68;;;13.90;99.90;;;;;;4449485;32;20078;-78
2021/05/22 06:56:36;;;;;;;0.22;0.22;;;14.00;99.90;;;;;;4448365;32;20069;-78
2021/05/22 06:59:02;;;;;;;0.30;0.30;;;14.00;99.90;;;;;;4448344;32;20073;-78
2021/05/22 07:01:28;;;;;;;0.25;0.25;;;14.20;99.90;;;;;;4447873;32;20061;-76
2021/05/22 07:03:55;;;;;;;0.30;0.30;;;14.20;99.90;;;;;;4448300;32;20139;-77
2021/05/22 07:06:23;;;;;;;0.20;0.20;;;14.20;99.90;;;;;;4445831;32;20142;-80
2021/05/22 07:08:50;;;;;;;3.60;0.95;;;14.10;99.90;;;;;;4448985;32;20057;-79
2021/05/22 07:11:16;;;;;;;0.43;0.40;;;14.20;99.90;;;;;;4448242;32;20073;-78
2021/05/22 07:13:42;;;;;;;0.22;0.22;;;14.30;99.90;;;;;;4432989;32;20082;-77
2021/05/22 07:16:07;;;;;;;0.20;0.20;;;14.30;99.90;;;;;;4433715;32;20439;-79
2021/05/22 07:18:33;;;;;;;0.20;0.20;;;14.20;99.90;;;;;;4434453;32;20074;-77
2021/05/22 07:20:58;;;;;;;1.02;0.35;;;14.20;99.90;;;;;;4434586;32;20125;-78
2021/05/22 07:23:24;;;;;;;0.30;0.30;;;14.30;99.90;;;;;;4433061;32;20086;-77
2021/05/22 07:25:50;;;;;;;0.30;0.30;;;14.30;99.90;;;;;;4435780;32;20526;-77
2021/05/22 07:28:16;;;;;;;0.47;0.47;;;14.30;99.90;;;;;;4438772;32;20130;-77
2021/05/22 07:30:42;;;;;;;0.40;0.40;;;14.30;99.90;;;;;;4433535;32;20077;-76
2021/05/22 07:33:07;;;;;;;0.30;0.30;;;14.20;99.90;;;;;;4435438;32;20112;-78
2021/05/22 07:35:33;;;;;;;0.43;0.43;;;14.30;99.90;;;;;;4434482;32;20070;-78
2021/05/22 07:37:58;;;;;;;0.30;0.30;;;14.30;99.90;;;;;;4436166;32;20060;-77
2021/05/22 07:40:24;;;;;;;0.50;0.50;;;14.40;99.90;;;;;;4433864;32;20065;-78
2021/05/22 07:42:50;;;;;;;0.25;0.25;;;14.50;99.90;;;;;;4435207;32;20078;-77
2021/05/22 07:45:18;;;;;;;1.87;0.40;;;14.50;99.90;;;;;;4436777;32;20077;-79
2021/05/22 07:47:44;;;;;;;0.45;0.43;;;14.50;99.90;;;;;;4435179;32;20062;-78
2021/05/22 07:50:11;;;;;;;0.20;0.20;;;14.80;99.90;;;;;;4436570;32;20069;-77
2021/05/22 07:52:40;;;;;;;0.28;0.28;;;15.00;99.90;;;;;;4434187;32;20495;-79
2021/05/22 07:55:07;;;;;;;0.37;0.37;;;15.10;99.90;;;;;;4436213;32;20120;-78
2021/05/22 07:57:33;;;;;;;0.68;0.68;;;15.10;99.90;;;;;;4435262;32;20506;-78
2021/05/22 07:59:59;;;;;;;0.30;0.30;;;14.90;99.90;;;;;;4437140;32;20094;-77
2021/05/22 08:02:24;;;;;;;0.15;0.15;;;14.90;99.90;;;;;;4436124;32;20065;-82
2021/05/22 08:04:50;;;;;;;0.20;0.20;;;15.10;99.90;;;;;;4434934;32;20082;-77
2021/05/22 08:07:15;;;;;;;0.20;0.20;;;15.10;99.90;;;;;;4435736;32;20116;-77
2021/05/22 08:09:41;;;;;;;0.45;0.45;;;15.30;99.90;;;;;;4435851;32;20072;-80
2021/05/22 08:12:07;;;;;;;0.45;0.35;;;15.50;99.90;;;;;;4435719;32;20078;-77
2021/05/22 08:14:32;;;;;;;0.20;0.20;;;15.70;99.90;;;;;;4436670;32;20078;-82
2021/05/22 08:17:01;;;;;;;0.30;0.30;;;15.80;99.90;;;;;;4441083;32;20082;-79
2021/05/22 08:19:26;;;;;;;0.20;0.20;;;15.90;99.90;;;;;;4450151;32;20131;-82
2021/05/22 08:21:52;;;;;;;0.20;0.20;;;15.90;99.90;;;;;;4451588;32;20077;-79
2021/05/22 08:24:20;;;;;;;0.22;0.22;;;15.90;99.90;;;;;;4451815;32;20482;-77
2021/05/22 08:26:49;;;;;;;0.37;0.37;;;15.90;99.90;;;;;;4445747;32;20065;-79
2021/05/22 08:29:15;;;;;;;0.30;0.30;;;16.00;99.90;;;;;;4434354;32;20131;-79
2021/05/22 08:31:40;;;;;;;0.45;0.45;;;16.20;99.90;;;;;;4435528;32;20503;-77
2021/05/22 08:34:07;;;;;;;0.35;0.35;;;16.20;99.90;;;;;;4432752;32;20069;-79
2021/05/22 08:36:41;;;;;;;0.20;0.20;;;16.00;99.90;;;;;;4435620;32;20060;-81
2021/05/22 08:39:07;;;;;;;2.08;1.05;;;16.20;99.90;;;;;;4431440;32;20073;-78
2021/05/22 08:41:34;;;;;;;1.95;0.65;;;16.20;99.90;;;;;;4433660;32;20096;-79
2021/05/22 08:44:02;;;;;;;0.30;0.30;;;16.40;99.90;;;;;;4433575;32;20082;-80
2021/05/22 08:46:33;;;;;;;0.30;0.30;;;16.30;99.90;;;;;;4433404;32;20126;-79
2021/05/22 08:48:58;;;;;;;0.20;0.20;;;16.50;99.70;;;;;;4433654;32;20081;-79
2021/05/22 08:51:25;;;;;;;0.20;0.20;;;16.60;99.70;;;;;;4433958;32;20105;-78
2021/05/22 08:53:53;;;;;;;0.20;0.20;;;16.70;99.40;;;;;;4434763;32;20140;-77
2021/05/22 08:56:19;;;;;;;2.80;1.33;;;16.90;99.50;;;;;;4436139;32;20086;-80
2021/05/22 08:58:45;;;;;;;0.88;0.68;;;16.70;98.90;;;;;;4436900;32;20069;-77
2021/05/22 09:01:20;;;;;;;3.92;0.40;;;16.70;99.20;;;;;;4435205;32;20076;-79
2021/05/22 09:03:46;;;;;;;0.55;0.47;;;16.60;99.70;;;;;;4435195;32;20069;-78
2021/05/22 09:06:18;;;;;;;0.30;0.30;;;16.40;99.90;;;;;;4435615;32;20081;-81
2021/05/22 09:08:56;;;;;;;0.30;0.30;;;16.60;99.90;;;;;;4437904;32;20135;-78
2021/05/22 09:11:24;;;;;;;0.40;0.40;;;16.70;99.30;;;;;;4435824;32;20077;-79
2021/05/22 09:13:53;;;;;;;0.20;0.20;;;16.70;98.70;;;;;;4451210;32;20073;-79
2021/05/22 09:16:20;;;;;;;0.45;0.45;;;17.00;98.60;;;;;;4450730;32;20073;-81
2021/05/22 09:18:46;;;;;;;0.20;0.20;;;17.10;97.00;;;;;;4450181;32;20119;-77
2021/05/22 09:21:13;;;;;;;0.20;0.20;;;17.10;96.60;;;;;;4450577;32;20065;-78
2021/05/22 09:23:42;;;;;;;0.25;0.25;;;17.10;96.30;;;;;;4453823;32;20507;-78
2021/05/22 09:26:32;;;;;;;0.20;0.20;;;16.80;97.00;;;;;;4448608;32;20065;-80
2021/05/22 09:28:59;;;;;;;0.30;0.30;;;16.70;96.80;;;;;;4433274;32;20104;-79
2021/05/22 09:31:28;;;;;;;0.30;0.30;;;16.90;97.20;;;;;;4437213;32;20093;-80
2021/05/22 09:34:03;;;;;;;0.20;0.20;;;17.30;97.10;;;;;;4436308;32;20070;-78
2021/05/22 09:36:44;;;;;;;0.35;0.35;;;17.70;95.10;;;;;;4433650;32;20090;-79
2021/05/22 09:39:18;;;;;;;0.30;0.30;;;17.90;94.70;;;;;;4432525;32;177939;-79
2021/05/22 09:41:43;;;;;;;1.35;1.10;;;17.90;93.80;;;;;;4447693;32;20077;-79
2021/05/22 09:44:54;;;;;;;;;;;;;;;;;;;;;
2021/05/22 09:47:32;;;;;;;0.30;0.30;;;18.00;92.70;;;;;;4422022;32;20077;-79
2021/05/22 09:49:58;;;;;;;0.20;0.20;;;18.00;92.70;;;;;;4450528;32;20443;-77
2021/05/22 09:52:24;;;;;;;0.20;0.20;;;18.10;92.50;;;;;;4453565;32;20065;-81
2021/05/22 09:57:57;;;;;;;0.20;0.20;;;17.80;91.80;;;;;;4446780;32;20130;-82
2021/05/22 10:00:27;;;;;;;0.30;0.30;;;17.80;91.30;;;;;;4454915;32;20089;-81
2021/05/22 10:02:58;;;;;;;0.30;0.30;;;17.90;89.40;;;;;;4453740;32;20183;-78
2021/05/22 10:06:08;;;;;;;0.30;0.30;;;18.10;90.80;;;;;;4450794;32;20072;-79
2021/05/22 10:08:34;;;;;;;0.20;0.20;;;18.50;91.00;;;;;;4435754;32;20069;-80
2021/05/22 10:10:59;;;;;;;0.20;0.20;;;19.00;90.50;;;;;;4449463;32;20084;-77
2021/05/22 10:13:45;;;;;;;0.52;0.50;;;19.10;87.20;;;;;;4439698;32;20058;-80
2021/05/22 10:16:10;;;;;;;0.30;0.30;;;19.10;85.90;;;;;;4433903;32;20081;-76
2021/05/22 10:18:39;;;;;;;1.20;0.65;;;19.00;84.40;;;;;;4434801;32;20089;-79
2021/05/22 10:21:11;;;;;;;0.40;0.40;;;19.00;86.20;;;;;;4435478;32;20117;-78
2021/05/22 10:24:04;;;;;;;0.30;0.30;;;19.00;87.30;;;;;;4436703;32;20069;-80
2021/05/22 10:26:32;;;;;;;1.10;0.30;;;18.80;86.40;;;;;;4431778;32;20454;-77
2021/05/22 10:29:16;;;;;;;0.30;0.30;;;18.30;84.90;;;;;;4448978;32;20496;-78
2021/05/22 10:31:42;;;;;;;0.20;0.20;;;17.90;86.70;;;;;;4450274;32;20081;-77
2021/05/22 10:34:10;;;;;;;0.30;0.30;;;17.60;85.60;;;;;;4447696;32;20069;-77
2021/05/22 10:36:56;;;;;;;0.20;0.20;;;17.40;85.40;;;;;;4448226;32;20077;-78
2021/05/22 10:39:44;;;;;;;0.20;0.20;;;17.10;86.00;;;;;;4448588;32;20065;-79
2021/05/22 10:42:32;;;;;;;0.55;0.55;;;16.90;88.50;;;;;;4433378;32;20132;-78
2021/05/22 10:44:58;;;;;;;1.55;0.65;;;16.90;91.00;;;;;;4432050;32;20065;-80
2021/05/22 10:47:36;;;;;;;0.40;0.40;;;16.60;93.50;;;;;;4431167;32;20064;-82
2021/05/22 10:50:05;;;;;;;7.68;0.50;;;16.30;94.80;;;;;;4448693;32;20061;-78
2021/05/22 10:52:38;;;;;;;0.32;0.32;;;16.30;95.00;;;;;;4448318;32;20081;-79
2021/05/22 10:55:11;;;;;;;0.50;0.50;;;16.30;93.80;;;;;;4449423;32;20132;-77
2021/05/22 10:57:56;;;;;;;0.40;0.40;;;16.50;91.40;;;;;;4448321;32;20069;-79
2021/05/22 11:00:24;;;;;;;0.20;0.20;;;16.80;91.80;;;;;;4433089;32;20488;-78
2021/05/22 11:03:22;;;;;;;0.30;0.30;;;16.90;93.10;;;;;;4434351;32;20077;-78
2021/05/22 11:05:48;;;;;;;0.20;0.20;;;17.00;91.10;;;;;;4401946;32;20093;-84
2021/05/22 11:08:19;;;;;;;0.30;0.30;;;16.90;88.30;;;;;;4437202;32;20089;-75
2021/05/22 11:10:51;;;;;;;1.35;0.30;;;17.10;88.00;;;;;;4442491;32;20081;-79
2021/05/22 11:13:26;;;;;;;0.30;0.30;;;17.00;87.50;;;;;;4435268;32;20080;-80
2021/05/22 11:15:55;;;;;;;1.08;0.45;;;16.90;84.80;;;;;;4433842;32;20079;-79
2021/05/22 11:18:41;;;;;;;0.40;0.40;;;16.90;84.00;;;;;;4431795;32;20069;-79
2021/05/22 11:21:26;;;;;;;1.90;1.10;;;16.90;84.50;;;;;;4433439;32;20104;-79
2021/05/22 11:24:01;;;;;;;12.52;1.02;;;16.80;85.50;;;;;;4431892;32;20086;-78
2021/05/22 11:26:52;;;;;;;0.40;0.40;;;16.90;85.40;;;;;;4432379;32;20120;-76
2021/05/22 11:29:18;;;;;;;0.75;0.35;;;17.40;85.50;;;;;;4432177;32;20069;-79
2021/05/22 11:31:44;;;;;;;0.30;0.30;;;17.70;84.80;;;;;;4442831;32;20440;-77
2021/05/22 11:34:27;;;;;;;0.20;0.20;;;17.60;83.90;;;;;;4452935;32;20077;-79
2021/05/22 11:37:14;;;;;;;0.35;0.35;;;17.40;84.80;;;;;;4450489;32;20415;-75
2021/05/22 11:39:48;;;;;;;0.20;0.20;;;17.10;85.00;;;;;;4435495;32;20093;-78
2021/05/22 11:42:36;;;;;;;0.30;0.30;;;16.80;87.00;;;;;;4448780;32;20412;-78
2021/05/22 11:45:05;;;;;;;0.20;0.20;;;16.80;87.80;;;;;;4441759;32;20068;-80
2021/05/22 11:47:36;;;;;;;2.75;1.40;;;16.90;87.50;;;;;;4448283;32;20123;-77
2021/05/22 11:50:03;;;;;;;0.40;0.40;;;17.40;87.10;;;;;;4433398;32;20070;-77
2021/05/22 11:52:35;;;;;;;0.20;0.20;;;18.20;83.30;;;;;;4435992;32;20475;-78
2021/05/22 11:55:17;;;;;;;0.20;0.20;;;18.10;82.40;;;;;;4436550;32;20085;-77
2021/05/22 11:57:43;;;;;;;0.30;0.30;;;17.80;83.60;;;;;;4435754;32;20082;-79
2021/05/22 12:00:11;;;;;;;0.30;0.30;;;17.60;84.30;;;;;;4433110;32;20431;-79
2021/05/22 12:02:40;;;;;;;0.30;0.30;;;17.40;85.00;;;;;;4432509;32;20523;-77
2021/05/22 12:05:08;;;;;;;0.30;0.30;;;17.50;84.30;;;;;;4433409;32;20073;-78
2021/05/22 12:07:51;;;;;;;0.20;0.20;;;17.80;83.90;;;;;;4448090;32;20069;-78
2021/05/22 12:10:30;;;;;;;0.30;0.30;;;18.00;84.20;;;;;;4454189;32;20084;-79
2021/05/22 12:13:02;;;;;;;0.20;0.20;;;18.20;84.30;;;;;;4440569;32;20077;-79
2021/05/22 12:15:40;;;;;;;0.50;0.50;;;18.30;83.30;;;;;;4437368;32;20089;-78
2021/05/22 12:18:07;;;;;;;0.25;0.25;;;18.40;83.20;;;;;;4448010;32;20069;-78
2021/05/22 12:20:51;;;;;;;2.83;0.50;;;18.50;82.00;;;;;;4439170;32;20073;-77
2021/05/22 12:23:28;;;;;;;0.20;0.20;;;19.20;80.30;;;;;;4440470;32;20115;-78
2021/05/22 12:26:19;;;;;;;0.40;0.40;;;19.80;77.60;;;;;;4439740;32;20204;-79
2021/05/22 12:28:54;;;;;;;1.58;1.05;;;19.40;78.60;;;;;;4438137;32;20061;-79
2021/05/22 12:31:20;;;;;;;0.70;0.70;;;18.70;80.50;;;;;;4440299;32;20089;-78
2021/05/22 12:34:10;;;;;;;0.20;0.20;;;18.60;80.20;;;;;;4437106;32;20072;-79
2021/05/22 12:37:00;;;;;;;0.20;0.20;;;17.90;81.30;;;;;;4434583;32;20096;-80
2021/05/22 12:39:32;;;;;;;0.30;0.30;;;17.70;83.10;;;;;;4437759;32;20511;-77
2021/05/22 12:41:57;;;;;;;0.47;0.47;;;17.50;83.80;;;;;;4445801;32;20415;-80
2021/05/22 12:44:46;;;;;;;;;;;;;;;;;;;;;
2021/05/22 12:47:40;;;;;;;0.17;0.17;;;17.30;85.50;;;;;;4450004;32;20065;-79
2021/05/22 12:51:00;;;;;;;0.30;0.30;;;17.30;86.60;;;;;;4451423;32;20073;-78
2021/05/22 12:53:31;;;;;;;0.20;0.20;;;18.30;86.00;;;;;;4448072;32;20139;-79
2021/05/22 12:56:06;;;;;;;0.85;0.80;;;19.20;82.20;;;;;;4452329;32;20123;-80
2021/05/22 12:58:32;;;;;;;0.20;0.20;;;20.10;78.90;;;;;;4454038;32;20073;-79
2021/05/22 13:01:20;;;;;;;1.27;0.32;;;19.80;78.20;;;;;;4451384;32;20065;-77
2021/05/22 13:03:49;;;;;;;0.15;0.15;;;20.70;77.00;;;;;;4452493;32;20509;-81